createdAt,value
2019-01-19T00:00:56.351Z,-3.24
2019-01-19T00:01:56.534Z,-3.10
2019-01-19T00:02:56.702Z,-3.05
2019-01-19T00:03:56.888Z,-3.03
2019-01-19T00:04:57.065Z,-3.06
2019-01-19T00:05:57.251Z,-3.20
2019-01-19T00:06:57.427Z,-3.28
2019-01-19T00:07:57.602Z,-3.33
2019-01-19T00:08:57.785Z,-3.35
2019-01-19T00:09:57.956Z,-3.42
2019-01-19T00:10:58.140Z,-3.28
2019-01-19T00:11:58.308Z,-3.42
2019-01-19T00:12:58.495Z,-3.30
2019-01-19T00:13:58.678Z,-3.33
2019-01-19T00:14:58.840Z,-3.41
2019-01-19T00:15:59.028Z,-3.41
2019-01-19T00:16:59.204Z,-3.31
2019-01-19T00:17:59.375Z,-3.41
2019-01-19T00:18:59.557Z,-3.36
2019-01-19T00:19:59.728Z,-3.41
2019-01-19T00:20:59.907Z,-3.41
2019-01-19T00:22:00.079Z,-3.38
2019-01-19T00:23:00.254Z,-3.46
2019-01-19T00:24:00.431Z,-3.45
2019-01-19T00:25:00.621Z,-3.39
2019-01-19T00:26:00.799Z,-3.46
2019-01-19T00:27:00.975Z,-3.38
2019-01-19T00:28:01.156Z,-3.35
2019-01-19T00:29:01.336Z,-3.35
2019-01-19T00:30:01.508Z,-3.38
2019-01-19T00:31:01.677Z,-3.33
2019-01-19T00:32:01.865Z,-3.45
2019-01-19T00:33:02.034Z,-3.41
2019-01-19T00:34:02.221Z,-3.38
2019-01-19T00:35:02.403Z,-3.41
2019-01-19T00:36:02.574Z,-3.38
2019-01-19T00:37:02.745Z,-3.38
2019-01-19T00:38:02.920Z,-3.35
2019-01-19T00:39:03.096Z,-3.36
2019-01-19T00:40:03.271Z,-3.31
2019-01-19T00:41:03.443Z,-3.27
2019-01-19T00:42:03.624Z,-3.41
2019-01-19T00:43:03.799Z,-3.39
2019-01-19T00:44:03.973Z,-3.33
2019-01-19T00:45:04.147Z,-3.35
2019-01-19T00:46:04.334Z,-3.33
2019-01-19T00:47:04.505Z,-3.36
2019-01-19T00:48:04.696Z,-3.33
2019-01-19T00:49:04.873Z,-3.33
2019-01-19T00:50:05.045Z,-3.35
2019-01-19T00:51:05.223Z,-3.33
2019-01-19T00:52:05.396Z,-3.38
2019-01-19T00:53:05.568Z,-3.52
2019-01-19T00:54:05.749Z,-3.46
2019-01-19T00:55:05.926Z,-3.54
2019-01-19T00:56:06.111Z,-3.49
2019-01-19T00:57:06.290Z,-3.52
2019-01-19T00:58:06.462Z,-3.54
2019-01-19T00:59:06.658Z,-3.67
2019-01-19T01:00:06.824Z,-3.59
2019-01-19T01:01:07.019Z,-3.60
2019-01-19T01:02:07.191Z,-3.54
2019-01-19T01:03:07.363Z,-3.56
2019-01-19T01:04:07.545Z,-3.56
2019-01-19T01:05:07.721Z,-3.57
2019-01-19T01:06:07.899Z,-3.60
2019-01-19T01:07:08.078Z,-3.54
2019-01-19T01:08:08.253Z,-3.56
2019-01-19T01:09:08.456Z,-3.62
2019-01-19T01:10:08.618Z,-3.56
2019-01-19T01:11:08.790Z,-3.46
2019-01-19T01:12:08.971Z,-3.49
2019-01-19T01:13:09.152Z,-3.54
2019-01-19T01:14:09.333Z,-3.45
2019-01-19T01:15:09.507Z,-3.48
2019-01-19T01:16:09.695Z,-3.49
2019-01-19T01:17:09.879Z,-3.54
2019-01-19T01:18:10.044Z,-3.53
2019-01-19T01:19:10.219Z,-3.39
2019-01-19T01:20:10.377Z,-3.52
2019-01-19T01:21:10.550Z,-3.60
2019-01-19T01:22:10.727Z,-3.52
2019-01-19T01:23:10.907Z,-3.60
2019-01-19T01:24:11.081Z,-3.57
2019-01-19T01:25:11.259Z,-3.62
2019-01-19T01:26:11.440Z,-3.59
2019-01-19T01:27:11.606Z,-3.57
2019-01-19T01:28:11.783Z,-3.66
2019-01-19T01:29:11.959Z,-3.62
2019-01-19T01:30:12.134Z,-3.67
2019-01-19T01:31:12.311Z,-3.66
2019-01-19T01:32:12.487Z,-3.72
2019-01-19T01:33:12.658Z,-3.66
2019-01-19T01:34:12.836Z,-3.60
2019-01-19T01:35:13.011Z,-3.63
2019-01-19T01:36:13.186Z,-3.64
2019-01-19T01:37:13.361Z,-3.69
2019-01-19T01:38:13.540Z,-3.64
2019-01-19T01:39:13.711Z,-3.59
2019-01-19T01:40:13.888Z,-3.62
2019-01-19T01:41:14.061Z,-3.64
2019-01-19T01:42:14.234Z,-3.69
2019-01-19T01:43:14.409Z,-3.75
2019-01-19T01:44:14.585Z,-3.76
2019-01-19T01:45:14.762Z,-3.69
2019-01-19T01:46:14.937Z,-3.66
2019-01-19T01:47:15.115Z,-3.76
2019-01-19T01:48:15.289Z,-3.72
2019-01-19T01:49:15.467Z,-3.75
2019-01-19T01:50:15.653Z,-3.79
2019-01-19T01:51:15.822Z,-3.67
2019-01-19T01:52:15.994Z,-3.59
2019-01-19T01:53:16.170Z,-3.64
2019-01-19T01:54:16.347Z,-3.54
2019-01-19T01:55:16.522Z,-3.60
2019-01-19T01:56:16.705Z,-3.60
2019-01-19T01:57:16.880Z,-3.48
2019-01-19T01:58:17.053Z,-3.60
2019-01-19T01:59:17.235Z,-3.64
2019-01-19T02:00:17.414Z,-3.64
2019-01-19T02:01:17.598Z,-3.76
2019-01-19T02:02:17.774Z,-3.64
2019-01-19T02:03:17.953Z,-3.56
2019-01-19T02:04:18.131Z,-3.75
2019-01-19T02:05:18.306Z,-3.67
2019-01-19T02:06:18.478Z,-3.76
2019-01-19T02:07:18.671Z,-3.66
2019-01-19T02:08:18.843Z,-3.59
2019-01-19T02:09:19.408Z,-3.59
2019-01-19T02:10:19.212Z,-3.72
2019-01-19T02:11:19.390Z,-3.78
2019-01-19T02:12:19.569Z,-3.79
2019-01-19T02:13:19.742Z,-3.75
2019-01-19T02:14:19.919Z,-3.67
2019-01-19T02:15:20.091Z,-3.78
2019-01-19T02:16:20.280Z,-3.75
2019-01-19T02:17:20.456Z,-3.76
2019-01-19T02:18:20.635Z,-3.72
2019-01-19T02:19:20.811Z,-3.86
2019-01-19T02:20:20.990Z,-3.86
2019-01-19T02:21:21.163Z,-3.91
2019-01-19T02:22:21.339Z,-3.72
2019-01-19T02:23:21.518Z,-3.76
2019-01-19T02:24:21.694Z,-3.88
2019-01-19T02:25:21.878Z,-3.83
2019-01-19T02:26:22.040Z,-3.93
2019-01-19T02:27:22.230Z,-3.90
2019-01-19T02:28:22.411Z,-3.97
2019-01-19T02:29:22.586Z,-4.03
2019-01-19T02:30:22.757Z,-4.03
2019-01-19T02:31:22.931Z,-4.01
2019-01-19T02:32:23.113Z,-4.06
2019-01-19T02:33:23.300Z,-4.07
2019-01-19T02:34:23.463Z,-3.97
2019-01-19T02:35:23.641Z,-3.94
2019-01-19T02:36:23.811Z,-3.94
2019-01-19T02:37:23.995Z,-3.97
2019-01-19T02:38:24.172Z,-3.99
2019-01-19T02:39:24.352Z,-3.96
2019-01-19T02:40:24.545Z,-3.99
2019-01-19T02:41:24.700Z,-3.99
2019-01-19T02:42:24.877Z,-3.99
2019-01-19T02:43:25.053Z,-3.96
2019-01-19T02:44:25.244Z,-3.86
2019-01-19T02:45:25.421Z,-3.86
2019-01-19T02:46:25.605Z,-3.91
2019-01-19T02:47:25.780Z,-3.93
2019-01-19T02:48:25.957Z,-3.93
2019-01-19T02:49:26.135Z,-3.94
2019-01-19T02:50:26.312Z,-3.90
2019-01-19T02:51:26.496Z,-3.86
2019-01-19T02:52:26.683Z,-3.93
2019-01-19T02:53:26.858Z,-3.88
2019-01-19T02:54:27.026Z,-3.99
2019-01-19T02:55:27.196Z,-3.96
2019-01-19T02:56:27.377Z,-3.97
2019-01-19T02:57:27.571Z,-3.97
2019-01-19T02:58:27.734Z,-4.00
2019-01-19T02:59:27.915Z,-4.03
2019-01-19T03:00:28.089Z,-4.04
2019-01-19T03:01:28.302Z,-4.01
2019-01-19T03:02:28.475Z,-4.01
2019-01-19T03:03:28.629Z,-3.96
2019-01-19T03:04:28.809Z,-4.01
2019-01-19T03:05:28.997Z,-4.04
2019-01-19T03:06:29.164Z,-4.10
2019-01-19T03:07:29.337Z,-4.06
2019-01-19T03:08:29.516Z,-4.07
2019-01-19T03:09:29.692Z,-4.04
2019-01-19T03:10:29.881Z,-4.15
2019-01-19T03:11:30.055Z,-4.21
2019-01-19T03:12:30.230Z,-4.15
2019-01-19T03:13:30.407Z,-4.14
2019-01-19T03:14:30.598Z,-4.32
2019-01-19T03:15:31.572Z,-4.29
2019-01-19T03:16:30.939Z,-4.32
2019-01-19T03:17:31.112Z,-4.38
2019-01-19T03:18:31.287Z,-4.33
2019-01-19T03:19:31.482Z,-4.32
2019-01-19T03:20:31.652Z,-4.42
2019-01-19T03:21:31.833Z,-4.30
2019-01-19T03:22:32.015Z,-4.43
2019-01-19T03:23:32.180Z,-4.42
2019-01-19T03:24:32.358Z,-4.32
2019-01-19T03:25:32.532Z,-4.39
2019-01-19T03:26:32.706Z,-4.50
2019-01-19T03:27:32.886Z,-4.47
2019-01-19T03:28:33.059Z,-4.39
2019-01-19T03:29:33.231Z,-4.43
2019-01-19T03:30:33.420Z,-4.53
2019-01-19T03:31:33.595Z,-4.42
2019-01-19T03:32:33.777Z,-4.36
2019-01-19T03:33:33.957Z,-4.51
2019-01-19T03:34:34.128Z,-4.49
2019-01-19T03:35:34.297Z,-4.51
2019-01-19T03:36:34.479Z,-4.60
2019-01-19T03:37:34.651Z,-4.65
2019-01-19T03:38:34.825Z,-4.57
2019-01-19T03:39:35.005Z,-4.61
2019-01-19T03:40:35.181Z,-4.69
2019-01-19T03:41:35.355Z,-4.74
2019-01-19T03:42:35.531Z,-4.68
2019-01-19T03:43:35.705Z,-4.57
2019-01-19T03:44:35.882Z,-4.65
2019-01-19T03:45:36.129Z,-4.67
2019-01-19T03:46:36.229Z,-4.71
2019-01-19T03:47:36.401Z,-4.74
2019-01-19T03:48:36.577Z,-4.77
2019-01-19T03:49:36.753Z,-4.67
2019-01-19T03:50:36.930Z,-4.69
2019-01-19T03:51:37.102Z,-4.69
2019-01-19T03:52:37.284Z,-4.69
2019-01-19T03:53:37.455Z,-4.54
2019-01-19T03:54:37.633Z,-4.63
2019-01-19T03:55:37.804Z,-4.56
2019-01-19T03:56:37.984Z,-4.53
2019-01-19T03:57:38.157Z,-4.46
2019-01-19T03:58:38.338Z,-4.38
2019-01-19T03:59:38.509Z,-4.33
2019-01-19T04:00:38.683Z,-4.30
2019-01-19T04:01:38.863Z,-4.33
2019-01-19T04:02:39.040Z,-4.32
2019-01-19T04:03:39.211Z,-4.24
2019-01-19T04:04:39.385Z,-4.25
2019-01-19T04:05:39.564Z,-4.20
2019-01-19T04:06:39.744Z,-4.29
2019-01-19T04:07:39.922Z,-4.22
2019-01-19T04:08:40.097Z,-4.28
2019-01-19T04:09:40.275Z,-4.24
2019-01-19T04:10:40.447Z,-4.24
2019-01-19T04:11:40.623Z,-4.14
2019-01-19T04:12:40.800Z,-4.18
2019-01-19T04:13:40.975Z,-4.18
2019-01-19T04:14:41.159Z,-4.25
2019-01-19T04:15:41.336Z,-4.22
2019-01-19T04:16:41.512Z,-4.30
2019-01-19T04:17:41.687Z,-4.18
2019-01-19T04:18:41.870Z,-4.38
2019-01-19T04:19:42.039Z,-4.33
2019-01-19T04:20:42.223Z,-4.38
2019-01-19T04:21:42.395Z,-4.43
2019-01-19T04:22:42.573Z,-4.35
2019-01-19T04:23:42.752Z,-4.43
2019-01-19T04:24:42.920Z,-4.49
2019-01-19T04:25:43.098Z,-4.51
2019-01-19T04:26:43.276Z,-4.49
2019-01-19T04:27:43.460Z,-4.50
2019-01-19T04:28:43.631Z,-4.46
2019-01-19T04:29:43.804Z,-4.49
2019-01-19T04:30:43.982Z,-4.57
2019-01-19T04:31:44.159Z,-4.63
2019-01-19T04:32:44.333Z,-4.54
2019-01-19T04:33:44.510Z,-4.61
2019-01-19T04:34:44.687Z,-4.51
2019-01-19T04:35:44.868Z,-4.67
2019-01-19T04:36:45.036Z,-4.50
2019-01-19T04:37:45.212Z,-4.50
2019-01-19T04:38:45.384Z,-4.50
2019-01-19T04:39:45.564Z,-4.50
2019-01-19T04:40:45.741Z,-4.56
2019-01-19T04:41:45.914Z,-4.51
2019-01-19T04:42:46.086Z,-4.53
2019-01-19T04:43:46.261Z,-4.53
2019-01-19T04:44:46.441Z,-4.53
2019-01-19T04:45:46.615Z,-4.57
2019-01-19T04:46:46.786Z,-4.47
2019-01-19T04:47:46.965Z,-4.57
2019-01-19T04:48:47.139Z,-4.56
2019-01-19T04:49:47.314Z,-4.56
2019-01-19T04:50:47.484Z,-4.63
2019-01-19T04:51:47.657Z,-4.57
2019-01-19T04:52:47.832Z,-4.54
2019-01-19T04:53:48.018Z,-4.56
2019-01-19T04:54:48.466Z,-4.63
2019-01-19T04:55:48.372Z,-4.51
2019-01-19T04:56:48.551Z,-4.58
2019-01-19T04:57:48.738Z,-4.67
2019-01-19T04:58:48.900Z,-4.58
2019-01-19T04:59:49.085Z,-4.65
2019-01-19T05:00:49.259Z,-4.67
2019-01-19T05:01:49.434Z,-4.69
2019-01-19T05:02:49.613Z,-4.63
2019-01-19T05:03:49.789Z,-4.81
2019-01-19T05:04:49.966Z,-4.79
2019-01-19T05:05:50.148Z,-4.81
2019-01-19T05:06:50.311Z,-4.86
2019-01-19T05:07:50.495Z,-4.81
2019-01-19T05:08:50.669Z,-4.79
2019-01-19T05:09:50.848Z,-4.81
2019-01-19T05:10:51.018Z,-4.92
2019-01-19T05:11:51.187Z,-4.89
2019-01-19T05:12:51.373Z,-4.93
2019-01-19T05:13:51.548Z,-4.95
2019-01-19T05:14:51.741Z,-4.92
2019-01-19T05:15:51.902Z,-4.99
2019-01-19T05:16:52.079Z,-5.03
2019-01-19T05:17:52.258Z,-4.90
2019-01-19T05:18:52.428Z,-4.99
2019-01-19T05:19:52.606Z,-4.99
2019-01-19T05:20:52.785Z,-4.95
2019-01-19T05:21:52.960Z,-5.00
2019-01-19T05:22:53.131Z,-4.97
2019-01-19T05:23:53.302Z,-4.92
2019-01-19T05:24:53.475Z,-5.03
2019-01-19T05:25:53.653Z,-4.99
2019-01-19T05:26:53.827Z,-5.03
2019-01-19T05:27:54.012Z,-5.03
2019-01-19T05:28:54.199Z,-5.04
2019-01-19T05:29:54.361Z,-5.08
2019-01-19T05:30:54.536Z,-5.08
2019-01-19T05:31:54.701Z,-5.13
2019-01-19T05:32:54.893Z,-5.17
2019-01-19T05:33:55.067Z,-5.17
2019-01-19T05:34:55.243Z,-5.07
2019-01-19T05:35:55.419Z,-5.13
2019-01-19T05:36:55.588Z,-5.07
2019-01-19T05:37:55.770Z,-5.13
2019-01-19T05:38:55.944Z,-5.10
2019-01-19T05:39:56.121Z,-5.18
2019-01-19T05:40:56.295Z,-5.14
2019-01-19T05:41:56.476Z,-5.17
2019-01-19T05:42:56.643Z,-5.14
2019-01-19T05:43:56.821Z,-5.19
2019-01-19T05:44:57.002Z,-5.30
2019-01-19T05:45:57.198Z,-5.23
2019-01-19T05:46:57.349Z,-5.23
2019-01-19T05:47:57.522Z,-5.25
2019-01-19T05:48:57.700Z,-5.26
2019-01-19T05:49:57.870Z,-5.25
2019-01-19T05:50:58.045Z,-5.30
2019-01-19T05:51:58.217Z,-5.19
2019-01-19T05:52:58.389Z,-5.22
2019-01-19T05:53:58.567Z,-5.30
2019-01-19T05:54:58.740Z,-5.30
2019-01-19T05:55:58.920Z,-5.23
2019-01-19T05:56:59.095Z,-5.30
2019-01-19T05:57:59.268Z,-5.32
2019-01-19T05:58:59.438Z,-5.33
2019-01-19T05:59:59.614Z,-5.37
2019-01-19T06:00:59.794Z,-5.27
2019-01-19T06:01:59.967Z,-5.26
2019-01-19T06:03:00.148Z,-5.32
2019-01-19T06:04:00.324Z,-5.17
2019-01-19T06:05:00.496Z,-5.22
2019-01-19T06:06:00.677Z,-5.14
2019-01-19T06:07:00.867Z,-5.13
2019-01-19T06:08:01.033Z,-5.10
2019-01-19T06:09:01.201Z,-5.11
2019-01-19T06:10:01.383Z,-5.13
2019-01-19T06:11:01.557Z,-5.14
2019-01-19T06:12:01.726Z,-5.14
2019-01-19T06:13:01.898Z,-5.10
2019-01-19T06:14:02.087Z,-5.19
2019-01-19T06:15:02.253Z,-5.26
2019-01-19T06:16:02.430Z,-5.22
2019-01-19T06:17:02.606Z,-5.27
2019-01-19T06:18:02.783Z,-5.23
2019-01-19T06:19:02.957Z,-5.19
2019-01-19T06:20:03.129Z,-5.25
2019-01-19T06:21:03.296Z,-5.23
2019-01-19T06:22:03.467Z,-5.22
2019-01-19T06:23:03.646Z,-5.18
2019-01-19T06:24:03.828Z,-5.26
2019-01-19T06:25:04.003Z,-5.23
2019-01-19T06:26:04.178Z,-5.22
2019-01-19T06:27:04.405Z,-5.27
2019-01-19T06:28:04.528Z,-5.29
2019-01-19T06:29:04.711Z,-5.29
2019-01-19T06:30:04.886Z,-5.43
2019-01-19T06:31:05.064Z,-5.47
2019-01-19T06:32:05.249Z,-5.36
2019-01-19T06:33:05.420Z,-5.50
2019-01-19T06:34:05.656Z,-5.57
2019-01-19T06:35:05.774Z,-5.51
2019-01-19T06:36:05.937Z,-5.59
2019-01-19T06:37:06.117Z,-5.51
2019-01-19T06:38:06.290Z,-5.62
2019-01-19T06:39:06.465Z,-5.64
2019-01-19T06:40:06.644Z,-5.68
2019-01-19T06:41:06.815Z,-5.72
2019-01-19T06:42:06.991Z,-5.55
2019-01-19T06:43:07.166Z,-5.65
2019-01-19T06:44:07.331Z,-5.62
2019-01-19T06:45:07.512Z,-5.61
2019-01-19T06:46:07.694Z,-5.66
2019-01-19T06:47:07.867Z,-5.69
2019-01-19T06:48:08.046Z,-5.74
2019-01-19T06:49:08.220Z,-5.61
2019-01-19T06:50:08.402Z,-5.66
2019-01-19T06:51:08.581Z,-5.59
2019-01-19T06:52:08.760Z,-5.62
2019-01-19T06:53:08.935Z,-5.57
2019-01-19T06:54:09.120Z,-5.55
2019-01-19T06:55:09.281Z,-5.55
2019-01-19T06:56:09.454Z,-5.53
2019-01-19T06:57:09.649Z,-5.59
2019-01-19T06:58:09.807Z,-5.59
2019-01-19T06:59:17.101Z,-5.62
2019-01-19T07:00:10.150Z,-5.64
2019-01-19T07:01:10.331Z,-5.69
2019-01-19T07:02:10.501Z,-5.61
2019-01-19T07:03:10.672Z,-5.47
2019-01-19T07:04:10.847Z,-5.39
2019-01-19T07:05:11.025Z,-5.37
2019-01-19T07:06:11.197Z,-5.44
2019-01-19T07:07:11.370Z,-5.39
2019-01-19T07:08:11.546Z,-5.36
2019-01-19T07:09:11.719Z,-5.23
2019-01-19T07:10:11.894Z,-5.26
2019-01-19T07:11:12.073Z,-5.23
2019-01-19T07:12:12.252Z,-5.39
2019-01-19T07:13:12.430Z,-5.46
2019-01-19T07:14:12.601Z,-5.37
2019-01-19T07:15:12.782Z,-5.36
2019-01-19T07:16:12.963Z,-5.33
2019-01-19T07:17:13.143Z,-5.27
2019-01-19T07:18:13.323Z,-5.25
2019-01-19T07:19:13.489Z,-5.25
2019-01-19T07:20:13.663Z,-5.23
2019-01-19T07:21:13.842Z,-5.33
2019-01-19T07:22:14.024Z,-5.32
2019-01-19T07:23:14.196Z,-5.33
2019-01-19T07:24:14.367Z,-5.33
2019-01-19T07:25:14.546Z,-5.32
2019-01-19T07:26:14.719Z,-5.41
2019-01-19T07:27:14.904Z,-5.35
2019-01-19T07:28:15.081Z,-5.33
2019-01-19T07:29:15.253Z,-5.19
2019-01-19T07:30:15.422Z,-5.23
2019-01-19T07:31:15.635Z,-5.26
2019-01-19T07:32:15.796Z,-5.22
2019-01-19T07:33:15.963Z,-5.18
2019-01-19T07:34:16.142Z,-5.14
2019-01-19T07:35:16.327Z,-5.11
2019-01-19T07:36:16.505Z,-5.08
2019-01-19T07:37:16.678Z,-4.92
2019-01-19T07:38:16.863Z,-4.89
2019-01-19T07:39:17.025Z,-4.81
2019-01-19T07:40:17.201Z,-4.79
2019-01-19T07:41:17.379Z,-4.67
2019-01-19T07:42:17.551Z,-4.78
2019-01-19T07:43:17.864Z,-4.85
2019-01-19T07:44:17.915Z,-4.78
2019-01-19T07:45:18.101Z,-5.00
2019-01-19T07:46:19.199Z,-4.99
2019-01-19T07:47:18.469Z,-5.03
2019-01-19T07:48:18.631Z,-5.11
2019-01-19T07:49:18.803Z,-4.99
2019-01-19T07:50:19.014Z,-4.95
2019-01-19T07:51:19.191Z,-5.07
2019-01-19T07:52:19.365Z,-5.10
2019-01-19T07:53:19.537Z,-5.14
2019-01-19T07:54:19.720Z,-4.87
2019-01-19T07:55:19.894Z,-4.90
2019-01-19T07:56:20.071Z,-4.72
2019-01-19T07:57:20.233Z,-4.56
2019-01-19T07:58:20.431Z,-4.24
2019-01-19T07:59:20.636Z,-3.64
2019-01-19T08:00:21.806Z,-2.97
2019-01-19T08:01:21.005Z,-2.45
2019-01-19T08:02:21.171Z,-1.76
2019-01-19T08:03:21.346Z,-1.49
2019-01-19T08:04:21.527Z,-1.16
2019-01-19T08:05:21.702Z,-0.86
2019-01-19T08:06:21.879Z,-0.16
2019-01-19T08:07:22.065Z,0.31
2019-01-19T08:08:22.229Z,0.07
2019-01-19T08:09:22.407Z,-0.22
2019-01-19T08:10:22.586Z,-0.23
2019-01-19T08:11:22.787Z,-0.37
2019-01-19T08:12:22.959Z,-0.78
2019-01-19T08:13:23.149Z,-1.17
2019-01-19T08:14:23.324Z,-1.33
2019-01-19T08:15:23.504Z,-1.15
2019-01-19T08:16:23.683Z,-1.10
2019-01-19T08:17:23.867Z,-0.89
2019-01-19T08:18:24.047Z,-1.16
2019-01-19T08:19:24.240Z,-1.22
2019-01-19T08:20:24.420Z,-1.19
2019-01-19T08:21:24.611Z,-1.17
2019-01-19T08:22:24.793Z,-1.20
2019-01-19T08:23:26.175Z,-1.20
2019-01-19T08:24:25.157Z,-1.04
2019-01-19T08:25:25.348Z,-0.80
2019-01-19T08:26:25.527Z,-0.69
2019-01-19T08:27:25.716Z,-0.98
2019-01-19T08:28:25.902Z,-1.34
2019-01-19T08:29:26.092Z,-1.84
2019-01-19T08:30:26.276Z,-2.05
2019-01-19T08:31:26.451Z,-1.90
2019-01-19T08:32:26.635Z,-1.51
2019-01-19T08:33:26.819Z,-1.64
2019-01-19T08:34:26.998Z,-1.49
2019-01-19T08:35:27.179Z,-1.40
2019-01-19T08:36:27.371Z,-1.15
2019-01-19T08:37:27.554Z,-0.95
2019-01-19T08:38:27.746Z,-0.65
2019-01-19T08:39:27.927Z,-0.73
2019-01-19T08:40:28.110Z,-0.49
2019-01-19T08:41:28.300Z,-0.22
2019-01-19T08:42:28.490Z,0.11
2019-01-19T08:43:28.668Z,-0.05
2019-01-19T08:44:28.853Z,0.14
2019-01-19T08:45:29.030Z,0.26
2019-01-19T08:46:29.216Z,-0.05
2019-01-19T08:47:29.401Z,0.04
2019-01-19T08:48:29.586Z,0.39
2019-01-19T08:49:29.763Z,0.72
2019-01-19T08:50:29.949Z,0.72
2019-01-19T08:51:30.133Z,0.75
2019-01-19T08:52:30.319Z,0.72
2019-01-19T08:53:30.507Z,0.32
2019-01-19T08:54:30.693Z,0.33
2019-01-19T08:55:30.900Z,0.32
2019-01-19T08:56:31.079Z,0.20
2019-01-19T08:57:31.271Z,0.10
2019-01-19T08:58:31.458Z,-0.01
2019-01-19T08:59:31.641Z,-0.04
2019-01-19T09:00:31.835Z,-0.11
2019-01-19T09:01:32.019Z,-0.07
2019-01-19T09:02:32.205Z,-0.26
2019-01-19T09:03:32.418Z,-0.33
2019-01-19T09:04:32.566Z,-0.46
2019-01-19T09:05:32.746Z,-0.86
2019-01-19T09:06:32.936Z,-1.28
2019-01-19T09:07:33.774Z,-1.66
2019-01-19T09:08:33.315Z,-1.54
2019-01-19T09:09:35.691Z,-1.67
2019-01-19T09:10:33.623Z,-2.06
2019-01-19T09:11:33.805Z,-1.79
2019-01-19T09:12:33.991Z,-1.87
2019-01-19T09:13:34.175Z,-2.05
2019-01-19T09:14:34.359Z,-2.08
2019-01-19T09:15:34.559Z,-1.91
2019-01-19T09:16:39.619Z,-1.97
2019-01-19T09:17:34.945Z,-1.69
2019-01-19T09:18:35.123Z,-1.15
2019-01-19T09:19:35.305Z,-0.86
2019-01-19T09:20:35.498Z,-0.70
2019-01-19T09:21:35.694Z,-0.57
2019-01-19T09:22:35.878Z,-0.36
2019-01-19T09:23:36.063Z,-0.08
2019-01-19T09:24:36.240Z,-0.23
2019-01-19T09:25:36.424Z,-0.19
2019-01-19T09:26:36.606Z,0.10
2019-01-19T09:27:36.802Z,0.26
2019-01-19T09:28:36.987Z,0.62
2019-01-19T09:29:37.170Z,0.91
2019-01-19T09:30:37.358Z,1.77
2019-01-19T09:31:37.541Z,1.87
2019-01-19T09:32:37.726Z,2.46
2019-01-19T09:33:37.908Z,2.18
2019-01-19T09:34:38.093Z,2.12
2019-01-19T09:35:38.276Z,1.66
2019-01-19T09:36:38.484Z,1.08
2019-01-19T09:37:40.972Z,1.00
2019-01-19T09:38:38.837Z,0.79
2019-01-19T09:39:39.025Z,0.94
2019-01-19T09:40:39.226Z,0.69
2019-01-19T09:41:39.420Z,0.65
2019-01-19T09:42:39.606Z,0.58
2019-01-19T09:43:39.787Z,0.36
2019-01-19T09:44:39.977Z,0.62
2019-01-19T09:45:40.161Z,0.94
2019-01-19T09:46:40.348Z,1.15
2019-01-19T09:47:40.539Z,1.16
2019-01-19T09:48:40.719Z,1.22
2019-01-19T09:49:40.904Z,1.29
2019-01-19T09:50:41.090Z,0.84
2019-01-19T09:51:41.287Z,0.84
2019-01-19T09:52:41.468Z,1.02
2019-01-19T09:53:41.658Z,1.32
2019-01-19T09:54:41.840Z,1.12
2019-01-19T09:55:42.028Z,1.22
2019-01-19T09:56:42.225Z,1.14
2019-01-19T09:57:42.397Z,1.36
2019-01-19T09:58:42.598Z,1.55
2019-01-19T09:59:42.786Z,1.62
2019-01-19T10:00:45.786Z,1.45
2019-01-19T10:01:43.163Z,1.73
2019-01-19T10:02:43.337Z,1.99
2019-01-19T10:03:43.520Z,2.16
2019-01-19T10:04:43.704Z,2.06
2019-01-19T10:05:43.906Z,2.24
2019-01-19T10:06:44.101Z,2.30
2019-01-19T10:07:48.512Z,2.63
2019-01-19T10:08:44.473Z,2.92
2019-01-19T10:09:44.664Z,2.72
2019-01-19T10:10:44.850Z,2.85
2019-01-19T10:11:45.038Z,2.64
2019-01-19T10:12:45.235Z,2.79
2019-01-19T10:13:45.447Z,2.69
2019-01-19T10:14:45.627Z,2.63
2019-01-19T10:15:45.816Z,2.43
2019-01-19T10:16:45.998Z,2.79
2019-01-19T10:17:46.193Z,2.36
2019-01-19T10:18:46.379Z,2.30
2019-01-19T10:19:46.573Z,2.21
2019-01-19T10:20:46.764Z,2.18
2019-01-19T10:21:46.956Z,2.41
2019-01-19T10:22:47.155Z,2.23
2019-01-19T10:23:47.343Z,2.38
2019-01-19T10:24:47.526Z,2.69
2019-01-19T10:25:47.713Z,2.74
2019-01-19T10:26:47.901Z,1.91
2019-01-19T10:27:48.091Z,1.90
2019-01-19T10:28:48.274Z,2.06
2019-01-19T10:29:48.479Z,2.27
2019-01-19T10:30:48.672Z,2.60
2019-01-19T10:31:48.858Z,2.75
2019-01-19T10:32:49.046Z,2.89
2019-01-19T10:33:49.240Z,2.85
2019-01-19T10:34:49.421Z,2.69
2019-01-19T10:35:49.608Z,2.16
2019-01-19T10:36:49.800Z,2.34
2019-01-19T10:37:56.176Z,2.20
2019-01-19T10:38:50.190Z,2.53
2019-01-19T10:39:50.390Z,2.60
2019-01-19T10:40:50.596Z,2.69
2019-01-19T10:41:50.793Z,2.57
2019-01-19T10:42:50.985Z,2.66
2019-01-19T10:43:51.177Z,2.77
2019-01-19T10:44:51.375Z,2.66
2019-01-19T10:45:51.561Z,2.84
2019-01-19T10:46:51.757Z,2.87
2019-01-19T10:47:51.954Z,2.79
2019-01-19T10:48:52.153Z,2.90
2019-01-19T10:49:52.361Z,2.78
2019-01-19T10:50:52.525Z,2.82
2019-01-19T10:51:59.227Z,2.93
2019-01-19T10:52:52.896Z,3.13
2019-01-19T10:53:53.086Z,3.23
2019-01-19T10:54:53.286Z,3.31
2019-01-19T10:55:53.479Z,3.31
2019-01-19T10:56:53.669Z,3.02
2019-01-19T10:57:53.859Z,3.06
2019-01-19T10:58:54.063Z,3.24
2019-01-19T10:59:54.250Z,3.29
2019-01-19T11:00:54.437Z,3.20
2019-01-19T11:01:54.622Z,3.32
2019-01-19T11:02:54.812Z,3.48
2019-01-19T11:03:54.997Z,3.36
2019-01-19T11:04:55.194Z,3.29
2019-01-19T11:05:55.386Z,3.29
2019-01-19T11:06:55.584Z,3.45
2019-01-19T11:07:55.772Z,3.32
2019-01-19T11:08:55.966Z,3.15
2019-01-19T11:09:56.150Z,3.76
2019-01-19T11:10:56.337Z,3.50
2019-01-19T11:11:56.540Z,3.42
2019-01-19T11:12:56.718Z,3.42
2019-01-19T11:13:56.908Z,3.61
2019-01-19T11:14:57.098Z,3.57
2019-01-19T11:15:57.285Z,3.33
2019-01-19T11:16:57.479Z,3.17
2019-01-19T11:17:57.673Z,3.43
2019-01-19T11:18:57.869Z,3.45
2019-01-19T11:19:58.049Z,3.60
2019-01-19T11:20:58.235Z,3.70
2019-01-19T11:21:58.425Z,3.62
2019-01-19T11:22:58.621Z,3.39
2019-01-19T11:23:58.815Z,3.33
2019-01-19T11:24:59.000Z,3.33
2019-01-19T11:25:59.197Z,3.28
2019-01-19T11:26:59.390Z,3.17
2019-01-19T11:27:59.582Z,3.50
2019-01-19T11:28:59.771Z,3.47
2019-01-19T11:29:59.952Z,3.75
2019-01-19T11:31:00.142Z,3.72
2019-01-19T11:32:00.341Z,3.80
2019-01-19T11:33:00.528Z,3.70
2019-01-19T11:34:00.718Z,3.93
2019-01-19T11:35:00.914Z,3.83
2019-01-19T11:36:01.102Z,3.80
2019-01-19T11:37:01.292Z,3.83
2019-01-19T11:38:01.480Z,3.57
2019-01-19T11:39:01.676Z,3.72
2019-01-19T11:40:01.864Z,3.93
2019-01-19T11:41:02.049Z,4.15
2019-01-19T11:42:02.244Z,4.04
2019-01-19T11:43:02.432Z,3.65
2019-01-19T11:44:02.624Z,3.78
2019-01-19T11:45:02.815Z,3.91
2019-01-19T11:46:02.999Z,4.08
2019-01-19T11:47:03.187Z,4.16
2019-01-19T11:48:03.373Z,4.20
2019-01-19T11:49:03.567Z,4.40
2019-01-19T11:50:03.757Z,4.85
2019-01-19T11:51:03.938Z,4.84
2019-01-19T11:52:04.138Z,4.65
2019-01-19T11:53:04.325Z,4.65
2019-01-19T11:54:04.518Z,4.62
2019-01-19T11:55:04.705Z,4.62
2019-01-19T11:56:11.999Z,4.75
2019-01-19T11:57:05.085Z,4.70
2019-01-19T11:58:05.273Z,4.60
2019-01-19T11:59:05.459Z,4.78
2019-01-19T12:00:05.665Z,4.97
2019-01-19T12:01:07.244Z,4.75
2019-01-19T12:02:06.068Z,5.09
2019-01-19T12:03:06.256Z,5.43
2019-01-19T12:04:06.442Z,5.39
2019-01-19T12:05:06.636Z,5.64
2019-01-19T12:06:06.828Z,5.97
2019-01-19T12:07:07.015Z,6.38
2019-01-19T12:08:07.211Z,6.36
2019-01-19T12:09:07.403Z,6.49
2019-01-19T12:10:07.591Z,6.66
2019-01-19T12:11:07.787Z,6.67
2019-01-19T12:12:07.971Z,6.92
2019-01-19T12:13:08.173Z,7.21
2019-01-19T12:14:08.365Z,6.69
2019-01-19T12:15:09.315Z,5.71
2019-01-19T12:16:08.752Z,4.34
2019-01-19T12:17:08.944Z,4.99
2019-01-19T12:18:09.136Z,5.20
2019-01-19T12:19:09.331Z,5.67
2019-01-19T12:20:09.516Z,6.08
2019-01-19T12:21:09.719Z,6.41
2019-01-19T12:22:09.917Z,6.81
2019-01-19T12:23:10.104Z,6.69
2019-01-19T12:24:10.296Z,6.81
2019-01-19T12:25:10.497Z,7.05
2019-01-19T12:26:10.693Z,7.31
2019-01-19T12:27:10.898Z,7.12
2019-01-19T12:28:11.085Z,7.13
2019-01-19T12:29:11.277Z,7.13
2019-01-19T12:30:11.468Z,7.09
2019-01-19T12:31:11.661Z,7.20
2019-01-19T12:32:11.855Z,7.79
2019-01-19T12:33:12.056Z,5.56
2019-01-19T12:34:12.242Z,5.02
2019-01-19T12:35:12.439Z,5.06
2019-01-19T12:36:12.631Z,5.17
2019-01-19T12:37:12.821Z,5.93
2019-01-19T12:38:13.021Z,6.46
2019-01-19T12:39:13.207Z,6.94
2019-01-19T12:40:13.396Z,7.17
2019-01-19T12:41:13.601Z,7.31
2019-01-19T12:42:13.803Z,7.28
2019-01-19T12:43:13.996Z,7.49
2019-01-19T12:44:14.183Z,7.61
2019-01-19T12:45:14.389Z,7.60
2019-01-19T12:46:14.558Z,7.52
2019-01-19T12:47:14.762Z,7.68
2019-01-19T12:48:14.947Z,7.72
2019-01-19T12:49:15.138Z,7.03
2019-01-19T12:50:15.337Z,7.48
2019-01-19T12:51:15.521Z,7.58
2019-01-19T12:52:15.724Z,7.52
2019-01-19T12:53:16.057Z,6.77
2019-01-19T12:54:16.104Z,6.74
2019-01-19T12:55:17.337Z,6.71
2019-01-19T12:56:16.498Z,6.54
2019-01-19T12:57:16.686Z,6.73
2019-01-19T12:58:16.875Z,6.84
2019-01-19T12:59:17.067Z,6.99
2019-01-19T13:00:17.257Z,6.91
2019-01-19T13:01:17.451Z,6.89
2019-01-19T13:02:17.644Z,6.71
2019-01-19T13:03:17.834Z,5.99